KDMA/DMA METAR and TAF weather

Enter ICAO airport designator
Station Type Date Time Source
KDMA METAR 2019/10/21 21:58 UTC NOAA

KDMA 212158Z AUTO 28008KT 10SM CLR 27/M07 A3001 RMK AO2 SLP133 T02731070 $


Station Type Date Time Source
KDMA Decoded METAR 2019/10/21 21:58 UTC NOAA

Davis-Monthan Air Force Base, AZ, United States (KDMA) 32-10N 110-53W
Oct 21, 2019 - 05:58 PM EDT / 2019.10.21 2158 UTC
Wind: from the W (280 degrees) at 9 MPH (8 KT):0
Visibility: 10 mile(s):0
Sky conditions: clear
Temperature: 81.1 F (27.3 C)
Dew Point: 19.4 F (-7.0 C)
Relative Humidity: 9%
Pressure (altimeter): 30.01 in. Hg (1016 hPa)
ob: KDMA 212158Z AUTO 28008KT 10SM CLR 27/M07 A3001 RMK AO2 SLP133 T02731070
cycle: 22

Station Type Date Time Source
KDMA TAF 2019/10/21 22:21 UTC NOAA

TAF TAF KDMA 212205Z 2122/2304 32009KT 9999 SKC QNH3000INS
BECMG 2205/2206 15009KT 9999 SKC QNH3006INS
BECMG 2219/2220 02009KT 9999 SKC QNH2999INS TX30/2221Z TN09/2211Z

Example: see airport list